Time;durP1;ratioP1;P1;durP2;ratioP2;P2;SDS_P1;SDS_P2;PMS_P1;PMS_P2;Temp;Humidity;BMP_temperature;BMP_pressure;BME280_temperature;BME280_humidity;BME280_pressure;Samples;Min_cycle;Max_cycle;Signal;HPM_P1;HPM_P2
2021/03/16 04:22:15;;;;;;;;;;;;;;;5.60;61.19;99818.91;5234552;27;20338;-88
2021/03/16 04:24:41;;;;;;;;;;;;;;;5.41;62.09;99819.66;5250758;27;20035;-88
2021/03/16 05:22:34;;;;;;;;;;;;;;;5.29;64.82;99850.84;5244277;27;20009;-89
2021/03/16 05:25:00;;;;;;;;;;;;;;;5.36;64.59;99850.03;5255064;27;19961;-88
2021/03/16 05:27:35;;;;;;;;;;;;;;;4.89;65.92;99848.81;5256830;27;19993;-89
2021/03/16 05:30:37;;;;;;;;;;;;;;;5.21;65.11;99854.28;5250464;27;19970;-90
2021/03/16 05:33:12;;;;;;;;;;;;;;;5.82;62.82;99853.75;5267047;27;19956;-89
2021/03/16 05:35:59;;;;;;;;;;;;;;;6.20;61.75;99849.59;5253254;27;19968;-89
2021/03/16 05:38:53;;;;;;;;;;;;;;;7.03;58.92;99837.53;5253357;27;19978;-89
2021/03/16 05:41:30;;;;;;;;;;;;;;;7.30;58.11;99835.78;5275333;27;19980;-90
2021/03/16 05:44:29;;;;;;;;;;;;;;;7.61;56.89;99837.44;5251477;27;19954;-90
2021/03/16 05:46:58;;;;;;;;;;;;;;;8.29;54.62;99834.53;5241854;27;20725;-90
2021/03/16 05:50:14;;;;;;;;;;;;;;;8.35;54.59;99838.00;5253219;27;19945;-89
2021/03/16 05:53:01;;;;;;;;;;;;;;;7.05;58.62;99848.84;5249014;27;19977;-89
2021/03/16 05:55:48;;;;;;;;;;;;;;;7.03;58.44;99843.63;5256937;27;19953;-89
2021/03/16 05:58:32;;;;;;;;;;;;;;;6.37;60.81;99850.50;5272504;27;19940;-90
2021/03/16 11:45:06;;;;;;;;;;;;;;;12.84;36.90;99985.22;5254933;27;19965;-85
2021/03/16 11:47:52;;;;;;;;;;;;;;;13.43;37.05;100005.91;5265250;27;20011;-85
2021/03/16 11:50:24;;;;;;;;;;;;;;;13.61;35.92;99990.50;5279369;27;19973;-85
2021/03/16 11:52:50;;;;;;;;;;;;;;;13.53;35.26;100012.69;5260081;27;19969;-84
2021/03/16 15:45:09;;;;;;;;;;;;;;;9.82;43.48;100153.34;5282291;27;20043;-85
2021/03/16 15:47:36;;;;;;;;;;;;;;;9.58;44.32;100159.63;5258233;27;19941;-85
2021/03/16 15:50:03;;;;;;;;;;;;;;;9.15;44.54;100159.84;5275584;27;20019;-86
2021/03/16 15:52:29;;;;;;;;;;;;;;;8.89;45.75;100169.53;5259473;27;20029;-86
2021/03/16 15:54:56;;;;;;;;;;;;;;;8.73;46.23;100159.06;5278008;27;19941;-86
2021/03/16 15:57:27;;;;;;;;;;;;;;;9.05;45.42;100174.72;5279510;27;19963;-85
2021/03/16 15:59:53;;;;;;;;;;;;;;;8.60;45.58;100178.31;5278984;27;19972;-85
2021/03/16 16:02:19;;;;;;;;;;;;;;;8.48;45.50;100165.25;5279545;27;19989;-86
2021/03/16 16:04:47;;;;;;;;;;;;;;;8.58;45.62;100172.19;5280339;27;19982;-86
2021/03/16 16:07:14;;;;;;;;;;;;;;;8.50;44.52;100168.72;5299164;27;20011;-85
2021/03/16 16:09:40;;;;;;;;;;;;;;;8.47;45.02;100171.34;5299210;27;19984;-86
2021/03/16 16:12:07;;;;;;;;;;;;;;;8.57;43.51;100183.56;5302207;27;20677;-87
2021/03/16 16:14:35;;;;;;;;;;;;;;;8.06;43.26;100187.88;5286741;27;19980;-88
2021/03/16 16:17:02;;;;;;;;;;;;;;;8.45;42.63;100183.59;5286227;27;19943;-87
2021/03/16 16:19:30;;;;;;;;;;;;;;;8.60;40.76;100178.31;5280344;27;19987;-86
2021/03/16 16:21:57;;;;;;;;;;;;;;;7.94;41.90;100194.88;5279515;27;20924;-87
2021/03/16 16:24:24;;;;;;;;;;;;;;;8.36;41.25;100193.16;5279806;27;19965;-86
2021/03/16 16:26:51;;;;;;;;;;;;;;;7.67;42.29;100200.00;5280067;27;20028;-86
2021/03/16 16:29:17;;;;;;;;;;;;;;;8.18;42.05;100201.00;5278967;27;20327;-87
2021/03/16 16:31:44;;;;;;;;;;;;;;;8.31;42.26;100207.97;5279832;27;19980;-88
2021/03/16 16:34:11;;;;;;;;;;;;;;;8.07;43.46;100216.69;5299566;27;20827;-86
2021/03/16 16:36:47;;;;;;;;;;;;;;;8.71;42.71;100225.47;5279740;27;19967;-86
2021/03/16 16:39:13;;;;;;;;;;;;;;;8.35;44.32;100224.53;5299801;27;20007;-87
2021/03/16 16:41:40;;;;;;;;;;;;;;;8.20;45.35;100235.88;5280508;27;19973;-86
2021/03/16 16:44:07;;;;;;;;;;;;;;;7.71;46.70;100231.41;5283851;27;19978;-86
2021/03/16 16:46:34;;;;;;;;;;;;;;;7.80;46.56;100235.81;5285056;27;20015;-86
2021/03/16 16:49:01;;;;;;;;;;;;;;;7.90;46.32;100231.47;5282242;27;19972;-86
2021/03/16 16:51:28;;;;;;;;;;;;;;;7.67;46.64;100228.78;5283462;27;19969;-86
2021/03/16 16:53:54;;;;;;;;;;;;;;;7.54;47.25;100243.56;5282582;27;19961;-87
2021/03/16 16:56:21;;;;;;;;;;;;;;;7.13;48.46;100243.34;5281439;27;20629;-86
2021/03/16 16:58:50;;;;;;;;;;;;;;;7.72;47.00;100240.13;5300606;27;19977;-87
2021/03/16 17:01:16;;;;;;;;;;;;;;;7.58;47.50;100239.22;5299601;27;20007;-86
2021/03/16 17:03:43;;;;;;;;;;;;;;;6.83;49.33;100239.69;5280778;27;20014;-86
2021/03/16 17:06:10;;;;;;;;;;;;;;;7.15;48.93;100257.31;5280841;27;20036;-86
2021/03/16 17:08:42;;;;;;;;;;;;;;;7.25;48.81;100251.25;5281191;27;20371;-86
2021/03/16 17:11:09;;;;;;;;;;;;;;;7.34;48.22;100256.53;5280100;27;19976;-88
2021/03/16 17:13:35;;;;;;;;;;;;;;;7.70;47.36;100239.25;5279291;27;19977;-87
2021/03/16 17:16:02;;;;;;;;;;;;;;;7.50;48.11;100247.03;5299104;27;19956;-87
2021/03/16 17:18:28;;;;;;;;;;;;;;;7.73;47.70;100249.72;5280608;27;20461;-86
2021/03/16 17:20:55;;;;;;;;;;;;;;;7.32;48.72;100250.41;5279509;27;20000;-87
2021/03/16 17:23:22;;;;;;;;;;;;;;;7.45;48.51;100254.84;5279768;27;20036;-87
2021/03/16 17:25:48;;;;;;;;;;;;;;;7.24;49.33;100257.37;5299173;27;20545;-87
2021/03/16 17:28:15;;;;;;;;;;;;;;;7.37;49.22;100258.28;5298638;27;19969;-86
2021/03/16 17:30:42;;;;;;;;;;;;;;;7.53;48.97;100257.50;5246249;27;897336;-87
2021/03/16 17:33:09;;;;;;;;;;;;;;;7.77;48.47;100255.84;5280490;27;20299;-87
2021/03/16 17:35:35;;;;;;;;;;;;;;;6.74;51.38;100270.97;5280967;27;20345;-87
2021/03/16 17:38:05;;;;;;;;;;;;;;;6.88;51.28;100269.31;5280537;27;19976;-86
2021/03/16 17:40:33;;;;;;;;;;;;;;;7.54;49.67;100261.00;5281551;27;19975;-87
2021/03/16 17:43:00;;;;;;;;;;;;;;;7.59;49.67;100269.72;5281139;27;19961;-87
2021/03/16 17:45:30;;;;;;;;;;;;;;;7.31;50.66;100273.94;5281683;27;20021;-86
2021/03/16 18:12:02;;;;;;;;;;;;;;;6.64;52.95;100310.91;5253735;27;19977;-86
2021/03/16 18:14:29;;;;;;;;;;;;;;;6.54;53.11;100317.78;5241077;27;20536;-86
2021/03/16 18:16:58;;;;;;;;;;;;;;;6.40;53.66;100316.78;5239832;27;20722;-86
2021/03/16 18:19:25;;;;;;;;;;;;;;;6.03;54.17;100330.31;5239763;27;19985;-86
2021/03/16 18:21:55;;;;;;;;;;;;;;;6.20;53.88;100337.44;5259241;27;19970;-88
2021/03/16 18:24:22;;;;;;;;;;;;;;;6.11;53.74;100333.84;5238582;27;19969;-87
2021/03/16 18:26:51;;;;;;;;;;;;;;;5.79;53.79;100337.78;5240416;27;20351;-86
2021/03/16 18:29:18;;;;;;;;;;;;;;;6.11;51.96;100335.59;5259658;27;19945;-87
2021/03/16 18:31:44;;;;;;;;;;;;;;;5.61;52.71;100341.91;5240968;27;20027;-87
2021/03/16 18:34:13;;;;;;;;;;;;;;;5.94;52.18;100338.00;5241387;27;20678;-87
2021/03/16 18:36:40;;;;;;;;;;;;;;;6.23;51.35;100345.28;5240357;27;20066;-87
2021/03/16 18:39:07;;;;;;;;;;;;;;;6.20;51.16;100332.22;5260759;27;19993;-87
2021/03/16 18:41:33;;;;;;;;;;;;;;;5.87;51.94;100342.25;5239521;27;19976;-87
2021/03/16 18:44:21;;;;;;;;;;;;;;;5.94;51.78;100335.37;5242537;27;19977;-87
2021/03/16 18:46:47;;;;;;;;;;;;;;;6.14;51.35;100335.63;5239718;27;19969;-86
2021/03/16 18:49:14;;;;;;;;;;;;;;;6.04;51.53;100332.06;5237707;27;19970;-86
2021/03/16 18:51:41;;;;;;;;;;;;;;;5.82;52.37;100341.28;5238220;27;20130;-87
2021/03/16 18:54:08;;;;;;;;;;;;;;;6.15;51.57;100342.63;5238179;27;19970;-86
2021/03/16 18:56:34;;;;;;;;;;;;;;;5.72;52.66;100349.00;5239185;27;20354;-86
2021/03/16 18:59:01;;;;;;;;;;;;;;;5.87;52.26;100346.59;5239468;27;19945;-86
2021/03/16 19:01:27;;;;;;;;;;;;;;;5.74;52.90;100353.38;5257721;27;19965;-87
2021/03/16 19:03:55;;;;;;;;;;;;;;;5.82;52.39;100348.25;5238583;27;20020;-86
2021/03/16 19:06:23;;;;;;;;;;;;;;;6.07;51.60;100342.53;5239510;27;20679;-87
2021/03/16 19:08:51;;;;;;;;;;;;;;;5.67;53.34;100349.81;5238659;27;19994;-87
2021/03/16 19:11:26;;;;;;;;;;;;;;;6.01;51.99;100349.41;5266577;27;20548;-87
2021/03/16 19:13:54;;;;;;;;;;;;;;;6.34;51.49;100341.06;5260467;27;20064;-87
2021/03/16 19:16:20;;;;;;;;;;;;;;;6.04;52.37;100342.47;5260709;27;19961;-87
2021/03/16 19:18:47;;;;;;;;;;;;;;;5.36;54.16;100339.84;5261225;27;19937;-86
2021/03/16 19:21:14;;;;;;;;;;;;;;;5.57;53.83;100334.91;5262391;27;20203;-88
2021/03/16 19:23:45;;;;;;;;;;;;;;;6.07;52.55;100328.59;5262501;27;19949;-87
2021/03/16 19:26:15;;;;;;;;;;;;;;;6.42;51.38;100328.13;5261231;27;20256;-86
2021/03/16 19:28:41;;;;;;;;;;;;;;;6.72;50.70;100330.12;5260027;27;19965;-87
2021/03/16 19:31:08;;;;;;;;;;;;;;;6.01;52.47;100332.03;5261744;27;19989;-86
2021/03/16 19:33:37;;;;;;;;;;;;;;;5.60;53.99;100334.94;5280693;27;19974;-86
2021/03/16 19:36:07;;;;;;;;;;;;;;;5.46;54.25;100339.09;5261275;27;19965;-86
2021/03/16 19:38:34;;;;;;;;;;;;;;;5.56;54.32;100341.00;5261348;27;20319;-87
2021/03/16 19:41:02;;;;;;;;;;;;;;;5.64;54.18;100341.06;5282019;27;20029;-86
2021/03/16 19:43:29;;;;;;;;;;;;;;;5.21;55.30;100343.97;5262439;27;20382;-87
2021/03/16 19:46:16;;;;;;;;;;;;;;;5.69;53.97;100340.28;5265085;27;19964;-86
2021/03/16 19:48:43;;;;;;;;;;;;;;;6.11;52.95;100330.38;5261513;27;19965;-86
2021/03/16 19:51:11;;;;;;;;;;;;;;;5.71;53.70;100342.91;5281058;27;19980;-86
2021/03/16 19:53:38;;;;;;;;;;;;;;;5.36;54.95;100339.84;5262723;27;19980;-86
2021/03/16 19:56:22;;;;;;;;;;;;;;;5.88;53.35;100335.28;5265684;27;19965;-87
2021/03/16 19:58:49;;;;;;;;;;;;;;;6.11;52.94;100317.34;5264845;27;19967;-87
2021/03/16 20:01:33;;;;;;;;;;;;;;;5.54;54.43;100340.09;5266501;27;19961;-87
2021/03/16 20:04:02;;;;;;;;;;;;;;;5.62;53.90;100338.47;5265003;27;20611;-87
2021/03/16 20:06:48;;;;;;;;;;;;;;;5.63;53.77;100337.59;5267359;27;19948;-87
2021/03/16 20:09:16;;;;;;;;;;;;;;;5.85;53.06;100343.06;5264189;27;20017;-87
2021/03/16 20:11:44;;;;;;;;;;;;;;;6.08;52.73;100336.44;5258257;27;19966;-87
2021/03/16 20:14:10;;;;;;;;;;;;;;;5.76;53.24;100335.13;5258597;27;19973;-86
2021/03/16 20:16:38;;;;;;;;;;;;;;;5.67;53.30;100341.97;5257170;27;19973;-86
2021/03/16 20:19:05;;;;;;;;;;;;;;;5.80;53.02;100339.56;5258197;27;19953;-86
2021/03/16 20:21:32;;;;;;;;;;;;;;;5.84;52.84;100343.94;5259023;27;19976;-87
2021/03/16 20:24:02;;;;;;;;;;;;;;;5.87;52.81;100336.16;5256308;27;19941;-87
2021/03/16 20:26:31;;;;;;;;;;;;;;;5.65;53.26;100332.41;5257663;27;19980;-87
2021/03/16 20:29:18;;;;;;;;;;;;;;;5.56;53.71;100346.19;5257476;27;19966;-87
2021/03/16 20:31:44;;;;;;;;;;;;;;;5.37;53.75;100344.19;5257185;27;20337;-87
2021/03/16 20:34:32;;;;;;;;;;;;;;;5.43;53.67;100342.53;5257389;27;19977;-87
2021/03/16 20:36:59;;;;;;;;;;;;;;;5.69;53.00;100336.81;5258137;27;19977;-87
2021/03/16 20:39:27;;;;;;;;;;;;;;;5.72;52.91;100344.66;5259659;27;19968;-87
2021/03/16 20:42:14;;;;;;;;;;;;;;;5.47;53.52;100346.94;5258006;27;19981;-87
2021/03/16 20:44:42;;;;;;;;;;;;;;;5.87;52.43;100349.19;5256981;27;20057;-87
2021/03/16 20:47:09;;;;;;;;;;;;;;;5.58;53.45;100343.59;5257200;27;20295;-87
2021/03/16 20:49:36;;;;;;;;;;;;;;;5.47;53.36;100348.66;5255992;27;19973;-87
2021/03/16 20:52:04;;;;;;;;;;;;;;;5.95;52.34;100349.34;5256182;27;20383;-87
2021/03/16 20:54:31;;;;;;;;;;;;;;;5.72;52.89;100351.59;5257216;27;20390;-87
2021/03/16 20:56:58;;;;;;;;;;;;;;;5.73;52.62;100350.75;5255253;27;19966;-87
2021/03/16 20:59:26;;;;;;;;;;;;;;;5.63;52.85;100341.94;5256715;27;20410;-87
2021/03/16 21:01:59;;;;;;;;;;;;;;;5.52;53.30;100352.19;5256832;27;20013;-87
2021/03/16 21:04:39;;;;;;;;;;;;;;;6.05;51.97;100345.97;5255999;27;19965;-87
2021/03/16 21:07:06;;;;;;;;;;;;;;;5.58;53.11;100352.28;5255015;27;20037;-87
2021/03/16 21:09:33;;;;;;;;;;;;;;;5.92;52.43;100352.75;5255666;27;19962;-86
2021/03/16 21:12:00;;;;;;;;;;;;;;;5.84;52.51;100350.03;5255742;27;20028;-87
2021/03/16 21:14:29;;;;;;;;;;;;;;;6.11;51.59;100343.41;5258386;27;19978;-86
2021/03/16 21:16:57;;;;;;;;;;;;;;;5.59;52.91;100342.72;5256283;27;20012;-87
2021/03/16 21:19:25;;;;;;;;;;;;;;;5.97;51.96;100335.47;5257317;27;19973;-87
2021/03/16 21:21:53;;;;;;;;;;;;;;;5.19;54.10;100347.38;5255662;27;19937;-86
2021/03/16 21:24:19;;;;;;;;;;;;;;;5.81;52.56;100344.78;5256839;27;19965;-87
2021/03/16 21:26:45;;;;;;;;;;;;;;;5.67;52.93;100343.72;5257510;27;19975;-86
2021/03/16 21:29:12;;;;;;;;;;;;;;;5.09;54.43;100351.59;5258787;27;19958;-88
2021/03/16 21:31:39;;;;;;;;;;;;;;;5.44;53.65;100354.72;5258211;27;19976;-86
2021/03/16 21:34:05;;;;;;;;;;;;;;;5.43;53.20;100352.94;5257214;27;19996;-87
2021/03/16 21:36:32;;;;;;;;;;;;;;;5.10;54.39;100360.28;5257453;27;19938;-85
2021/03/16 21:39:03;;;;;;;;;;;;;;;5.15;54.08;100356.88;5257183;27;19961;-86
2021/03/16 21:41:30;;;;;;;;;;;;;;;5.25;54.18;100350.09;5259045;27;20028;-86
2021/03/16 21:44:11;;;;;;;;;;;;;;;5.36;54.11;100358.06;5257096;27;19985;-86
2021/03/16 21:46:37;;;;;;;;;;;;;;;4.93;54.78;100353.06;5256534;27;19973;-85
2021/03/16 21:49:04;;;;;;;;;;;;;;;4.68;55.67;100356.13;5257000;27;20355;-86
2021/03/16 21:51:30;;;;;;;;;;;;;;;4.72;55.72;100355.31;5257161;27;19972;-86
2021/03/16 21:53:57;;;;;;;;;;;;;;;5.13;54.70;100349.91;5257203;27;20017;-86
2021/03/16 21:56:24;;;;;;;;;;;;;;;4.58;56.03;100349.84;5257873;27;19966;-87
2021/03/16 21:58:51;;;;;;;;;;;;;;;4.94;55.50;100351.31;5257608;27;19976;-86
2021/03/16 22:01:17;;;;;;;;;;;;;;;4.83;55.80;100347.69;5257600;27;19945;-87
2021/03/16 22:03:47;;;;;;;;;;;;;;;4.62;56.40;100346.47;5256501;27;20018;-87
2021/03/16 22:06:13;;;;;;;;;;;;;;;4.61;56.60;100349.03;5255986;27;19974;-87
2021/03/16 22:08:40;;;;;;;;;;;;;;;4.91;55.88;100346.06;5255556;27;19977;-87
2021/03/16 22:11:06;;;;;;;;;;;;;;;4.91;56.03;100343.47;5254883;27;19973;-86
2021/03/16 22:13:33;;;;;;;;;;;;;;;4.59;56.61;100343.81;5255087;27;20027;-87
2021/03/16 22:15:59;;;;;;;;;;;;;;;4.70;56.52;100339.66;5255779;27;19977;-86
2021/03/16 22:18:27;;;;;;;;;;;;;;;4.86;56.46;100334.72;5255816;27;19966;-87
2021/03/16 22:20:54;;;;;;;;;;;;;;;4.73;56.74;100341.44;5257013;27;19973;-86
2021/03/16 22:23:21;;;;;;;;;;;;;;;4.50;57.39;100339.31;5256617;27;19974;-87
2021/03/16 22:25:49;;;;;;;;;;;;;;;4.73;56.97;100342.31;5256044;27;19990;-86
2021/03/16 22:28:16;;;;;;;;;;;;;;;4.73;57.00;100342.31;5256005;27;19969;-87
2021/03/16 22:31:02;;;;;;;;;;;;;;;4.53;57.82;100339.38;5256750;27;19946;-87
2021/03/16 22:33:48;;;;;;;;;;;;;;;4.41;57.98;100330.47;5257974;27;19946;-87
2021/03/16 22:36:24;;;;;;;;;;;;;;;4.75;57.27;100335.41;5256183;27;19984;-87
2021/03/16 22:38:50;;;;;;;;;;;;;;;4.54;57.74;100332.44;5258495;27;19937;-87
2021/03/16 22:41:18;;;;;;;;;;;;;;;4.35;58.28;100322.53;5257309;27;19974;-87
2021/03/16 22:43:44;;;;;;;;;;;;;;;4.35;58.54;100332.94;5257810;27;20588;-87
2021/03/16 22:46:10;;;;;;;;;;;;;;;4.32;58.56;100334.66;5260089;27;19975;-87
2021/03/16 22:48:37;;;;;;;;;;;;;;;4.69;57.64;100330.09;5259116;27;20388;-86
2021/03/16 22:51:04;;;;;;;;;;;;;;;4.62;57.71;100333.47;5258872;27;19985;-86
2021/03/16 22:53:30;;;;;;;;;;;;;;;4.51;58.14;100329.78;5263140;27;19970;-86
2021/03/16 22:55:57;;;;;;;;;;;;;;;4.68;57.80;100330.09;5258530;27;19973;-86
2021/03/16 22:58:24;;;;;;;;;;;;;;;4.45;58.19;100322.75;5257858;27;19981;-87
2021/03/16 23:00:51;;;;;;;;;;;;;;;4.64;58.03;100325.66;5258050;27;19989;-86
2021/03/16 23:03:26;;;;;;;;;;;;;;;4.42;58.50;100319.22;5258369;27;20060;-86
2021/03/16 23:05:53;;;;;;;;;;;;;;;4.81;57.24;100313.81;5258548;27;19965;-86
2021/03/16 23:08:21;;;;;;;;;;;;;;;4.62;57.97;100315.25;5257855;27;20366;-86
2021/03/16 23:10:48;;;;;;;;;;;;;;;4.49;58.21;100314.13;5258141;27;19977;-87
2021/03/16 23:13:16;;;;;;;;;;;;;;;4.19;59.61;100313.59;5258765;27;19974;-86
2021/03/16 23:15:44;;;;;;;;;;;;;;;4.75;57.68;100314.59;5256944;27;19974;-86
2021/03/16 23:56:42;;;;;;;;;;;;;;;4.39;58.60;100304.44;5258124;27;19982;-86
2021/03/16 23:59:26;;;;;;;;;;;;;;;3.89;59.96;100313.91;5259446;27;19965;-87
